Time;durP1;ratioP1;P1;durP2;ratioP2;P2;SDS_P1;SDS_P2;PMS_P1;PMS_P2;Temp;Humidity;BMP_temperature;BMP_pressure;BME280_temperature;BME280_humidity;BME280_pressure;Samples;Min_cycle;Max_cycle;Signal;HPM_P1;HPM_P2
2022/11/28 00:01:44;;;;;;;;;;;;;;;17.71;65.81;101391.98;2373740;75;50273;-77
2022/11/28 00:04:46;;;;;;;;;;;;;;;17.76;65.85;101388.33;2338357;75;51677;-77
2022/11/28 00:07:47;;;;;;;;;;;;;;;17.80;65.77;101386.55;2338426;75;51456;-77
2022/11/28 00:10:49;;;;;;;;;;;;;;;17.82;65.62;101382.36;2373748;75;51333;-78
2022/11/28 00:13:50;;;;;;;;;;;;;;;17.78;65.66;101372.45;2338261;75;49936;-78
2022/11/28 00:16:52;;;;;;;;;;;;;;;17.79;65.58;101369.27;2323578;75;52253;-79
2022/11/28 00:19:54;;;;;;;;;;;;;;;17.78;65.53;101363.58;2338481;75;51451;-77
2022/11/28 00:22:55;;;;;;;;;;;;;;;17.78;65.52;101367.09;2373455;75;50163;-76
2022/11/28 00:25:57;;;;;;;;;;;;;;;17.74;65.39;101361.70;2373406;75;50163;-78
2022/11/28 00:28:59;;;;;;;;;;;;;;;17.71;65.33;101366.55;2338265;75;50990;-77
2022/11/28 00:32:02;;;;;;;;;;;;;;;17.69;65.54;101361.34;2338280;75;51609;-78
2022/11/28 00:35:03;;;;;;;;;;;;;;;17.68;65.61;101357.52;2373445;75;50351;-78
2022/11/28 00:38:05;;;;;;;;;;;;;;;17.70;65.66;101346.98;2338343;75;50559;-77
2022/11/28 00:41:08;;;;;;;;;;;;;;;17.75;65.63;101343.80;2338342;75;49502;-77
2022/11/28 00:44:10;;;;;;;;;;;;;;;17.78;65.54;101344.84;2367393;75;50747;-77
2022/11/28 00:47:11;;;;;;;;;;;;;;;17.78;65.51;101343.51;2332415;75;50155;-77
2022/11/28 00:50:13;;;;;;;;;;;;;;;17.79;65.47;101342.50;2358018;75;50217;-78
2022/11/28 00:53:14;;;;;;;;;;;;;;;17.78;65.47;101346.19;2331274;75;51041;-80
2022/11/28 00:56:17;;;;;;;;;;;;;;;17.79;65.41;101342.50;2358316;75;50239;-78
2022/11/28 00:59:19;;;;;;;;;;;;;;;17.76;65.41;101345.50;2357841;75;51512;-78
2022/11/28 01:02:20;;;;;;;;;;;;;;;17.75;65.25;101339.31;2357977;75;51378;-78
2022/11/28 01:05:22;;;;;;;;;;;;;;;17.72;65.44;101343.62;2357926;75;51483;-77
2022/11/28 01:08:23;;;;;;;;;;;;;;;17.68;65.21;101336.10;2332090;75;51406;-79
2022/11/28 01:11:25;;;;;;;;;;;;;;;17.66;65.31;101332.73;2332846;75;51336;-77
2022/11/28 01:14:29;;;;;;;;;;;;;;;17.68;65.52;101328.07;2357734;75;51408;-77
2022/11/28 01:17:30;;;;;;;;;;;;;;;17.73;65.53;101327.09;2311971;75;52462;-79
2022/11/28 01:20:32;;;;;;;;;;;;;;;17.77;65.42;101317.72;2299455;76;51534;-77
2022/11/28 01:23:34;;;;;;;;;;;;;;;17.79;65.36;101313.05;2326073;75;50554;-77
2022/11/28 01:26:36;;;;;;;;;;;;;;;17.80;65.24;101313.41;2352396;75;51447;-78
2022/11/28 01:29:38;;;;;;;;;;;;;;;17.77;65.21;101305.67;2332618;75;50946;-78
2022/11/28 01:32:40;;;;;;;;;;;;;;;17.76;65.19;101302.67;2332816;75;50670;-77
2022/11/28 01:35:41;;;;;;;;;;;;;;;17.80;65.07;101301.36;2357715;75;51518;-76
2022/11/28 01:38:43;;;;;;;;;;;;;;;17.79;65.07;101295.66;2357913;75;50575;-78
2022/11/28 01:41:44;;;;;;;;;;;;;;;17.77;65.16;101294.97;2331418;75;50031;-77
2022/11/28 01:44:51;;;;;;;;;;;;;;;17.74;65.26;101296.64;2337889;75;50708;-77
2022/11/28 01:47:53;;;;;;;;;;;;;;;17.70;65.42;101291.25;2357094;75;50829;-76
2022/11/28 01:50:56;;;;;;;;;;;;;;;17.72;65.22;101287.92;2373545;75;50769;-77
2022/11/28 01:53:57;;;;;;;;;;;;;;;17.75;65.21;101286.25;2319182;75;50168;-78
2022/11/28 01:57:03;;;;;;;;;;;;;;;17.81;65.09;101276.29;2333428;76;51459;-77
2022/11/28 02:00:08;;;;;;;;;;;;;;;17.83;65.03;101272.95;2333252;76;51466;-76
2022/11/28 02:03:12;;;;;;;;;;;;;;;17.83;65.00;101279.65;2299047;76;53581;-76
2022/11/28 02:06:14;;;;;;;;;;;;;;;17.81;64.97;101271.77;2297683;76;52340;-76
2022/11/28 02:09:15;;;;;;;;;;;;;;;17.79;64.98;101268.88;2299416;76;50402;-77
2022/11/28 02:12:19;;;;;;;;;;;;;;;17.79;64.95;101263.05;2333175;76;50291;-77
2022/11/28 02:15:28;;;;;;;;;;;;;;;17.79;64.94;101267.07;2331313;75;51487;-78
2022/11/28 02:18:35;;;;;;;;;;;;;;;17.78;64.83;101257.85;2315494;75;50972;-76
2022/11/28 02:21:41;;;;;;;;;;;;;;;17.75;64.89;101252.80;2372951;75;50534;-76
2022/11/28 02:24:56;;;;;;;;;;;;;;;17.71;64.62;101246.95;2373543;75;50656;-76
2022/11/28 02:28:02;;;;;;;;;;;;;;;17.69;64.96;101251.62;2373640;75;51432;-77
2022/11/28 02:31:23;;;;;;;;;;;;;;;17.72;64.96;101239.23;2373557;75;50179;-78
2022/11/28 02:34:30;;;;;;;;;;;;;;;17.77;64.83;101234.74;2349084;75;50299;-77
2022/11/28 02:37:33;;;;;;;;;;;;;;;17.81;64.68;101236.97;2324938;76;51557;-79
2022/11/28 02:40:40;;;;;;;;;;;;;;;17.81;64.66;101240.16;2325041;76;51508;-79
2022/11/28 02:43:49;;;;;;;;;;;;;;;17.79;64.64;101239.44;2288160;76;52325;-79
2022/11/28 02:47:08;;;;;;;;;;;;;;;17.77;64.69;101234.74;2355485;75;51451;-78
2022/11/28 02:50:10;;;;;;;;;;;;;;;17.74;64.74;101226.53;2354561;75;51436;-78
2022/11/28 02:53:13;;;;;;;;;;;;;;;17.73;64.74;101230.23;2356081;75;50243;-79
2022/11/28 02:56:14;;;;;;;;;;;;;;;17.73;64.62;101231.56;2324575;75;50083;-79
2022/11/28 02:59:27;;;;;;;;;;;;;;;17.71;64.71;101230.05;2356673;75;51466;-79
2022/11/28 03:02:29;;;;;;;;;;;;;;;17.64;64.53;101219.98;2355927;75;50705;-78
2022/11/28 03:05:44;;;;;;;;;;;;;;;17.66;64.87;101216.33;2359708;75;51445;-78
2022/11/28 03:08:59;;;;;;;;;;;;;;;17.71;64.79;101214.00;2355117;75;51584;-79
2022/11/28 03:12:15;;;;;;;;;;;;;;;17.76;64.73;101207.14;2356343;75;51493;-79
2022/11/28 03:15:17;;;;;;;;;;;;;;;17.82;64.59;101204.34;2356116;75;50391;-77
2022/11/28 03:18:20;;;;;;;;;;;;;;;17.84;64.50;101206.36;2356483;74;50722;-77
2022/11/28 03:21:27;;;;;;;;;;;;;;;17.83;64.48;101192.14;2319245;74;52884;-77
2022/11/28 03:24:30;;;;;;;;;;;;;;;17.80;64.51;101201.84;2356202;75;50680;-77
2022/11/28 03:27:39;;;;;;;;;;;;;;;17.78;64.48;101197.12;2355135;75;50657;-77
2022/11/28 03:30:42;;;;;;;;;;;;;;;17.79;64.45;101198.81;2339705;75;50793;-78
2022/11/28 03:33:49;;;;;;;;;;;;;;;17.79;64.41;101196.14;2316483;75;51234;-77
2022/11/28 03:36:52;;;;;;;;;;;;;;;17.76;64.44;101196.95;2353039;75;49931;-77
2022/11/28 03:39:54;;;;;;;;;;;;;;;17.76;64.46;101194.27;2346021;75;51533;-77
2022/11/28 03:42:58;;;;;;;;;;;;;;;17.73;64.50;101197.28;2346235;75;50396;-79
2022/11/28 03:46:00;;;;;;;;;;;;;;;17.75;64.52;101192.09;2306409;76;51249;-78
2022/11/28 03:49:02;;;;;;;;;;;;;;;17.77;64.45;101182.55;2304392;76;52433;-77
2022/11/28 03:52:10;;;;;;;;;;;;;;;17.78;64.38;101178.38;2341297;75;50698;-78
2022/11/28 03:55:13;;;;;;;;;;;;;;;17.77;64.37;101182.55;2342072;75;50416;-78
2022/11/28 03:58:16;;;;;;;;;;;;;;;17.76;64.33;101178.20;2303528;76;51275;-78
2022/11/28 04:01:26;;;;;;;;;;;;;;;17.76;64.40;101175.53;2341386;75;50297;-78
2022/11/28 04:04:29;;;;;;;;;;;;;;;17.75;64.40;101177.85;2347058;75;50289;-78
2022/11/28 04:07:35;;;;;;;;;;;;;;;17.73;64.33;101178.04;2346210;75;51526;-78
2022/11/28 04:10:38;;;;;;;;;;;;;;;17.66;64.31;101171.66;2305229;76;51564;-78
2022/11/28 04:13:57;;;;;;;;;;;;;;;17.66;64.35;101173.50;2342345;75;51529;-79
2022/11/28 04:17:00;;;;;;;;;;;;;;;17.62;64.28;101163.13;2342864;76;50198;-79
2022/11/28 04:20:10;;;;;;;;;;;;;;;17.66;64.49;101162.80;2341597;76;50732;-78
2022/11/28 04:23:12;;;;;;;;;;;;;;;17.72;64.37;101156.78;2305896;76;50095;-79
2022/11/28 04:26:16;;;;;;;;;;;;;;;17.76;64.21;101155.45;2342485;76;52366;-77
2022/11/28 04:29:18;;;;;;;;;;;;;;;17.84;64.01;101159.51;2341972;75;50631;-78
2022/11/28 04:32:19;;;;;;;;;;;;;;;17.87;63.90;101159.68;2341675;75;51421;-78
2022/11/28 04:35:32;;;;;;;;;;;;;;;17.87;63.83;101157.00;2297211;76;50973;-78
2022/11/28 04:38:33;;;;;;;;;;;;;;;17.87;63.81;101154.33;2331777;76;50302;-78
2022/11/28 04:41:37;;;;;;;;;;;;;;;17.84;63.83;101153.65;2331993;76;50596;-78
2022/11/28 04:44:43;;;;;;;;;;;;;;;17.82;63.85;101156.16;2332673;76;52776;-78
2022/11/28 04:47:45;;;;;;;;;;;;;;;17.80;63.88;101146.11;2299030;76;52679;-79
2022/11/28 04:50:48;;;;;;;;;;;;;;;17.78;63.92;101145.43;2332318;76;50617;-78
2022/11/28 04:53:51;;;;;;;;;;;;;;;17.78;64.00;101144.09;2298278;76;50247;-80
2022/11/28 04:56:54;;;;;;;;;;;;;;;17.76;64.10;101144.75;2330747;76;50510;-78
2022/11/28 04:59:56;;;;;;;;;;;;;;;17.75;64.05;101136.37;2298196;76;51818;-77
2022/11/28 05:02:58;;;;;;;;;;;;;;;17.78;64.06;101144.09;2331766;75;50395;-76
2022/11/28 05:05:59;;;;;;;;;;;;;;;17.84;63.84;101142.11;2357658;75;50694;-75
2022/11/28 05:09:01;;;;;;;;;;;;;;;17.86;63.79;101138.77;2373406;75;51520;-76
2022/11/28 05:12:02;;;;;;;;;;;;;;;17.86;63.73;101141.95;2336609;75;50082;-76
2022/11/28 05:15:04;;;;;;;;;;;;;;;17.84;63.73;101146.13;2337836;75;50609;-74
2022/11/28 05:18:06;;;;;;;;;;;;;;;17.81;63.72;101144.62;2373256;75;50337;-74
2022/11/28 05:21:07;;;;;;;;;;;;;;;17.79;63.79;101143.08;2373355;75;50653;-74
2022/11/28 05:24:09;;;;;;;;;;;;;;;17.79;63.83;101149.77;2311916;75;51161;-76
2022/11/28 05:27:11;;;;;;;;;;;;;;;17.77;63.86;101140.55;2373425;75;50337;-77
2022/11/28 05:30:13;;;;;;;;;;;;;;;17.76;64.01;101140.73;2338086;75;50729;-77
2022/11/28 05:33:14;;;;;;;;;;;;;;;17.73;64.09;101143.24;2373084;75;50306;-77
2022/11/28 05:36:16;;;;;;;;;;;;;;;17.71;64.12;101135.05;2319015;76;49527;-78
2022/11/28 05:39:17;;;;;;;;;;;;;;;17.73;64.06;101137.89;2333405;75;50408;-78
2022/11/28 05:42:19;;;;;;;;;;;;;;;17.79;63.88;101135.91;2333125;76;50217;-78
2022/11/28 05:45:21;;;;;;;;;;;;;;;17.83;63.82;101135.09;2359511;75;51424;-80
2022/11/28 05:48:22;;;;;;;;;;;;;;;17.83;63.78;101127.06;2274248;77;52548;-78
2022/11/28 05:51:24;;;;;;;;;;;;;;;17.83;63.72;101121.71;2288781;76;50601;-77
2022/11/28 05:54:25;;;;;;;;;;;;;;;17.81;63.72;101122.38;2314392;75;52041;-77
2022/11/28 05:57:28;;;;;;;;;;;;;;;17.78;63.75;101120.83;2314728;75;50753;-77
2022/11/28 06:00:30;;;;;;;;;;;;;;;17.75;63.79;101114.48;2274232;77;52388;-77
2022/11/28 06:03:32;;;;;;;;;;;;;;;17.75;63.77;101122.51;2323039;75;50214;-77
2022/11/28 06:06:34;;;;;;;;;;;;;;;17.76;63.82;101109.95;2284802;77;51366;-77
2022/11/28 06:09:35;;;;;;;;;;;;;;;17.71;63.90;101109.11;2310247;77;51516;-77
2022/11/28 06:12:37;;;;;;;;;;;;;;;17.68;63.94;101108.11;2312865;77;50709;-78
2022/11/28 06:15:40;;;;;;;;;;;;;;;17.70;63.96;101106.11;2313663;77;51424;-78
2022/11/28 06:18:42;;;;;;;;;;;;;;;17.75;63.90;101101.09;2312764;77;51455;-78
2022/11/28 06:21:43;;;;;;;;;;;;;;;17.83;63.71;101098.95;2312971;77;51413;-77
2022/11/28 06:24:45;;;;;;;;;;;;;;;17.90;63.44;101089.23;2287375;77;52383;-78
2022/11/28 06:27:46;;;;;;;;;;;;;;;17.93;63.29;101081.36;2287708;77;52443;-78
2022/11/28 06:30:48;;;;;;;;;;;;;;;17.93;63.23;101092.94;2313733;77;53736;-78
2022/11/28 06:33:50;;;;;;;;;;;;;;;17.91;63.23;101084.23;2314067;77;51359;-78
2022/11/28 06:36:51;;;;;;;;;;;;;;;17.87;63.25;101077.52;2295977;76;51110;-78
2022/11/28 06:39:53;;;;;;;;;;;;;;;17.84;63.31;101085.89;2294179;76;50199;-76
2022/11/28 06:42:54;;;;;;;;;;;;;;;17.81;63.36;101082.22;2328187;76;50285;-77
2022/11/28 06:45:56;;;;;;;;;;;;;;;17.77;63.50;101075.48;2293881;75;50635;-76
2022/11/28 06:48:57;;;;;;;;;;;;;;;17.74;63.62;101080.67;2294060;76;52368;-77
2022/11/28 06:51:59;;;;;;;;;;;;;;;17.73;63.59;101085.70;2328533;76;50679;-78
2022/11/28 06:55:01;;;;;;;;;;;;;;;17.77;63.55;101078.16;2328306;76;51500;-78
2022/11/28 06:58:02;;;;;;;;;;;;;;;17.81;63.48;101085.73;2294481;76;51570;-78
2022/11/28 07:01:07;;;;;;;;;;;;;;;17.89;63.28;101083.55;2316380;75;50902;-78
2022/11/28 07:04:09;;;;;;;;;;;;;;;17.92;63.13;101084.55;2325069;76;51453;-78
2022/11/28 07:07:11;;;;;;;;;;;;;;;17.92;63.24;101089.08;2327867;76;50724;-78
2022/11/28 07:10:12;;;;;;;;;;;;;;;17.91;63.21;101084.73;2323305;76;51388;-78
2022/11/28 07:13:14;;;;;;;;;;;;;;;17.87;63.21;101086.89;2290773;76;51214;-77
2022/11/28 07:16:16;;;;;;;;;;;;;;;17.86;63.24;101075.03;2323069;76;50278;-77
2022/11/28 07:19:22;;;;;;;;;;;;;;;17.80;63.35;101077.37;2324617;76;51420;-77
2022/11/28 07:22:21;;;;;;;;;;;;;;;17.80;63.40;101076.52;2323638;76;22491;-77
2022/11/28 07:25:23;;;;;;;;;;;;;;;17.75;63.53;101072.99;2290676;76;51888;-77
2022/11/28 07:28:25;;;;;;;;;;;;;;;17.74;63.58;101082.01;2323223;76;51411;-77
2022/11/28 07:31:30;;;;;;;;;;;;;;;17.76;63.57;101080.52;2323256;76;51423;-77
2022/11/28 07:34:30;;;;;;;;;;;;;;;17.80;63.55;101080.53;2328418;76;22383;-77
2022/11/28 07:37:31;;;;;;;;;;;;;;;17.89;63.34;101083.55;2305476;74;51589;-77
2022/11/28 07:40:33;;;;;;;;;;;;;;;17.93;63.18;101083.56;2282394;76;52453;-77
2022/11/28 07:43:35;;;;;;;;;;;;;;;17.95;63.10;101078.02;2307809;76;50652;-77
2022/11/28 07:46:36;;;;;;;;;;;;;;;17.94;63.08;101073.17;2342707;75;51475;-78
2022/11/28 07:49:38;;;;;;;;;;;;;;;17.92;63.18;101068.99;2356143;75;51481;-77
2022/11/28 07:52:39;;;;;;;;;;;;;;;17.90;63.23;101065.64;2356087;75;50258;-78
2022/11/28 07:55:41;;;;;;;;;;;;;;;17.87;63.24;101060.63;2326051;75;50045;-77
2022/11/28 07:58:43;;;;;;;;;;;;;;;17.84;63.25;101065.81;2326145;75;50702;-78
2022/11/28 08:01:44;;;;;;;;;;;;;;;17.79;63.39;101066.31;2355964;75;50346;-77
2022/11/28 08:04:46;;;;;;;;;;;;;;;17.79;63.44;101066.80;2309616;76;49545;-77
2022/11/28 08:07:49;;;;;;;;;;;;;;;17.79;63.39;101065.45;2305707;76;50190;-77
2022/11/28 08:10:51;;;;;;;;;;;;;;;17.80;63.48;101073.36;2304820;76;50272;-77
2022/11/28 08:13:52;;;;;;;;;;;;;;;17.86;63.40;101069.17;2311479;77;50214;-78
2022/11/28 08:16:54;;;;;;;;;;;;;;;17.94;63.17;101070.50;2311758;75;50594;-77
2022/11/28 08:19:56;;;;;;;;;;;;;;;17.97;63.02;101064.80;2304773;77;52117;-78
2022/11/28 08:22:57;;;;;;;;;;;;;;;17.97;63.07;101062.12;2304778;77;50591;-78
2022/11/28 08:26:00;;;;;;;;;;;;;;;17.96;63.04;101062.31;2311684;76;51498;-78
2022/11/28 08:29:02;;;;;;;;;;;;;;;17.91;63.10;101054.78;2278839;77;50974;-78
2022/11/28 08:32:03;;;;;;;;;;;;;;;17.90;63.11;101053.09;2305056;76;51583;-78
2022/11/28 08:35:05;;;;;;;;;;;;;;;17.87;63.14;101048.08;2306436;76;51405;-79
2022/11/28 08:38:07;;;;;;;;;;;;;;;17.85;63.16;101043.39;2308313;76;50583;-77
2022/11/28 08:41:12;;;;;;;;;;;;;;;17.83;63.28;101042.74;2307950;76;51377;-74
2022/11/28 08:44:14;;;;;;;;;;;;;;;17.84;63.30;101045.74;2339679;76;51191;-73
2022/11/28 08:47:16;;;;;;;;;;;;;;;17.89;63.14;101047.92;2305726;76;50637;-73
2022/11/28 08:50:18;;;;;;;;;;;;;;;18.09;62.58;101044.39;2332688;76;51393;-73
2022/11/28 08:53:19;;;;;;;;;;;;;;;18.09;62.62;101035.02;2298973;76;49842;-74
2022/11/28 08:56:21;;;;;;;;;;;;;;;18.15;62.50;101044.53;2301689;76;51889;-74
2022/11/28 08:59:23;;;;;;;;;;;;;;;18.19;62.40;101045.04;2312574;77;51498;-74
2022/11/28 09:02:24;;;;;;;;;;;;;;;18.14;62.52;101048.22;2312286;76;50678;-74
2022/11/28 09:05:26;;;;;;;;;;;;;;;18.12;62.60;101049.40;2307966;75;52481;-74
2022/11/28 09:08:28;;;;;;;;;;;;;;;18.14;62.57;101051.41;2325911;75;50448;-74
2022/11/28 09:11:29;;;;;;;;;;;;;;;18.12;62.57;101048.89;2355714;75;50703;-76
2022/11/28 09:14:31;;;;;;;;;;;;;;;18.12;62.56;101049.40;2325584;75;51426;-75
2022/11/28 09:17:32;;;;;;;;;;;;;;;18.11;62.62;101049.05;2325661;75;52315;-74
2022/11/28 09:20:34;;;;;;;;;;;;;;;17.99;62.87;101046.73;2325698;75;51509;-74
2022/11/28 09:23:36;;;;;;;;;;;;;;;17.94;63.02;101045.06;2355476;74;50300;-73
2022/11/28 09:26:38;;;;;;;;;;;;;;;17.95;63.03;101058.77;2355668;75;50213;-74
2022/11/28 09:29:39;;;;;;;;;;;;;;;18.04;62.91;101056.94;2299793;75;49505;-73
2022/11/28 09:32:41;;;;;;;;;;;;;;;18.05;62.81;101051.39;2325790;75;50717;-73
2022/11/28 09:35:42;;;;;;;;;;;;;;;18.10;62.75;101043.37;2329592;75;50203;-75
2022/11/28 09:38:44;;;;;;;;;;;;;;;18.09;62.72;101043.87;2312270;77;50400;-74
2022/11/28 09:41:50;;;;;;;;;;;;;;;18.06;62.68;101045.05;2253492;76;51283;-75
2022/11/28 09:44:53;;;;;;;;;;;;;;;18.10;62.57;101053.58;2312580;77;51459;-73
2022/11/28 09:47:56;;;;;;;;;;;;;;;18.10;62.56;101048.22;2304946;77;50240;-73
2022/11/28 09:50:59;;;;;;;;;;;;;;;18.05;62.72;101046.55;2289022;76;50716;-73
2022/11/28 09:54:02;;;;;;;;;;;;;;;18.03;62.74;101037.84;2256021;77;49780;-74
2022/11/28 09:57:05;;;;;;;;;;;;;;;17.94;62.96;101030.34;2255255;76;50377;-73
2022/11/28 10:00:09;;;;;;;;;;;;;;;17.89;63.12;101025.99;2251631;79;50446;-73
2022/11/28 10:03:18;;;;;;;;;;;;;;;17.91;63.15;101023.16;2254014;77;50346;-73
2022/11/28 10:06:27;;;;;;;;;;;;;;;17.97;63.06;101013.93;2254804;78;51152;-74
2022/11/28 10:09:36;;;;;;;;;;;;;;;18.05;62.81;101023.28;2287390;76;51524;-74
2022/11/28 10:12:42;;;;;;;;;;;;;;;18.11;62.64;101012.89;2288880;76;51471;-74
2022/11/28 10:15:45;;;;;;;;;;;;;;;18.11;62.65;101004.38;2279423;76;51566;-74
2022/11/28 10:18:48;;;;;;;;;;;;;;;18.15;62.49;101010.22;2227843;79;51210;-74
2022/11/28 10:21:54;;;;;;;;;;;;;;;18.12;62.55;101013.25;2250634;78;51452;-74
2022/11/28 10:24:56;;;;;;;;;;;;;;;18.12;62.56;101010.56;2249145;78;51573;-74
2022/11/28 10:27:58;;;;;;;;;;;;;;;18.06;62.65;101024.97;2249700;78;50662;-74
2022/11/28 10:31:01;;;;;;;;;;;;;;;18.06;62.60;101017.45;2217756;79;50963;-73
2022/11/28 10:34:07;;;;;;;;;;;;;;;18.01;62.66;101019.29;2263741;76;51470;-73
2022/11/28 10:37:22;;;;;;;;;;;;;;;17.91;62.95;101014.62;2287075;77;49712;-73
2022/11/28 10:40:42;;;;;;;;;;;;;;;17.89;63.04;101009.93;2288015;76;52382;-73
2022/11/28 10:43:45;;;;;;;;;;;;;;;17.96;62.91;101008.77;2256171;77;51153;-73
2022/11/28 10:46:48;;;;;;;;;;;;;;;18.07;62.63;101005.72;2287860;76;51540;-74
2022/11/28 10:49:52;;;;;;;;;;;;;;;18.13;62.44;101005.02;2250756;77;50761;-73
2022/11/28 10:53:00;;;;;;;;;;;;;;;18.14;62.41;101008.05;2219707;80;51541;-74
2022/11/28 10:56:16;;;;;;;;;;;;;;;18.18;62.28;101003.17;2207881;78;52618;-74
2022/11/28 10:59:19;;;;;;;;;;;;;;;18.15;62.35;101003.02;2250629;77;51521;-74
2022/11/28 11:02:23;;;;;;;;;;;;;;;18.11;62.41;100991.47;2232947;78;50345;-76
2022/11/28 11:05:25;;;;;;;;;;;;;;;18.06;62.45;100991.50;2271837;78;50729;-74
2022/11/28 11:08:29;;;;;;;;;;;;;;;18.05;62.45;100987.13;2247976;78;49601;-73
2022/11/28 11:11:34;;;;;;;;;;;;;;;18.06;62.44;100984.80;2277639;77;51483;-74
2022/11/28 11:14:38;;;;;;;;;;;;;;;17.98;62.59;100986.64;2271459;78;51476;-74
2022/11/28 11:17:39;;;;;;;;;;;;;;;17.88;62.85;100975.29;2209720;79;23045;-73
2022/11/28 11:20:41;;;;;;;;;;;;;;;17.89;62.87;100967.61;2185760;79;51651;-74
2022/11/28 11:23:43;;;;;;;;;;;;;;;17.95;62.72;100969.59;2208178;79;50187;-75
2022/11/28 11:26:46;;;;;;;;;;;;;;;18.07;62.40;100973.58;2239537;79;51457;-74
2022/11/28 11:29:47;;;;;;;;;;;;;;;18.13;62.26;100972.05;2239655;79;50769;-75
2022/11/28 11:32:49;;;;;;;;;;;;;;;18.16;62.15;100978.41;2209724;79;52359;-73
2022/11/28 11:35:50;;;;;;;;;;;;;;;18.14;62.17;100975.08;2275049;78;51403;-73
2022/11/28 11:38:52;;;;;;;;;;;;;;;18.11;62.21;100983.44;2279020;78;51490;-74
2022/11/28 11:42:01;;;;;;;;;;;;;;;18.13;62.20;100985.45;2215114;79;51363;-74
2022/11/28 11:45:21;;;;;;;;;;;;;;;18.11;62.22;100987.45;2192919;79;52536;-74
2022/11/28 11:48:24;;;;;;;;;;;;;;;18.09;62.27;100984.14;2223620;78;50395;-74
2022/11/28 11:51:27;;;;;;;;;;;;;;;18.04;62.36;100984.13;2229739;79;50342;-73
2022/11/28 11:54:29;;;;;;;;;;;;;;;17.96;62.59;100980.66;2256737;79;50359;-74
2022/11/28 11:57:35;;;;;;;;;;;;;;;17.90;62.80;100977.30;2224676;79;49585;-74
2022/11/28 12:00:38;;;;;;;;;;;;;;;17.92;62.76;100973.45;2257027;79;51501;-75
2022/11/28 12:03:42;;;;;;;;;;;;;;;18.01;62.55;100971.09;2258060;78;51510;-74
2022/11/28 12:06:45;;;;;;;;;;;;;;;18.13;62.24;100964.02;2262368;78;51585;-75
2022/11/28 12:09:47;;;;;;;;;;;;;;;18.22;62.00;100963.00;2234994;78;51567;-75
2022/11/28 12:12:49;;;;;;;;;;;;;;;18.30;61.76;100968.83;2258778;78;50299;-75
2022/11/28 12:16:01;;;;;;;;;;;;;;;18.28;61.79;100949.73;2259515;78;50594;-75
2022/11/28 12:19:08;;;;;;;;;;;;;;;18.24;62.00;100948.94;2257403;78;50770;-75
2022/11/28 12:22:14;;;;;;;;;;;;;;;18.20;62.03;100942.24;2224162;79;50065;-76
2022/11/28 12:25:17;;;;;;;;;;;;;;;18.15;62.14;100945.94;2256545;78;50744;-76
2022/11/28 12:28:21;;;;;;;;;;;;;;;18.12;62.22;100936.41;2256545;78;50439;-75
2022/11/28 12:31:40;;;;;;;;;;;;;;;18.09;62.18;100924.72;2256469;79;50732;-76
2022/11/28 12:34:52;;;;;;;;;;;;;;;18.02;62.30;100929.08;2223120;79;50024;-75
2022/11/28 12:37:56;;;;;;;;;;;;;;;17.97;62.44;100922.90;2264972;78;50397;-75
2022/11/28 12:41:11;;;;;;;;;;;;;;;18.11;62.09;100928.06;2265308;78;51433;-75
2022/11/28 12:44:21;;;;;;;;;;;;;;;18.16;61.88;100919.00;2263939;77;50657;-76
2022/11/28 12:47:30;;;;;;;;;;;;;;;18.26;61.70;100927.66;2216494;79;51221;-75
2022/11/28 12:50:33;;;;;;;;;;;;;;;18.30;61.56;100926.80;2261646;77;50653;-74
2022/11/28 12:53:46;;;;;;;;;;;;;;;18.34;61.33;100926.80;2264403;77;50415;-75
2022/11/28 12:56:55;;;;;;;;;;;;;;;18.32;61.35;100928.80;2294015;77;51441;-74
2022/11/28 13:00:14;;;;;;;;;;;;;;;18.33;61.28;100934.48;2294492;77;50355;-76
2022/11/28 13:03:20;;;;;;;;;;;;;;;18.34;61.21;100934.83;2290426;77;50734;-74
2022/11/28 13:06:38;;;;;;;;;;;;;;;18.28;61.30;100933.66;2263256;78;50627;-81
2022/11/28 13:09:45;;;;;;;;;;;;;;;18.12;61.71;100933.73;2261682;77;50640;-79
2022/11/28 13:13:05;;;;;;;;;;;;;;;18.14;61.65;100929.55;2228996;78;50920;-78
2022/11/28 13:16:26;;;;;;;;;;;;;;;18.06;61.88;100922.39;2265847;77;50747;-76
2022/11/28 13:19:32;;;;;;;;;;;;;;;18.07;61.91;100920.03;2279123;77;50451;-77
2022/11/28 13:22:47;;;;;;;;;;;;;;;18.16;61.77;100921.68;2224251;80;51485;-75
2022/11/28 13:25:53;;;;;;;;;;;;;;;18.25;61.58;100919.28;2216632;79;51222;-78
2022/11/28 13:28:57;;;;;;;;;;;;;;;18.30;61.48;100912.58;2224368;80;51544;-77
2022/11/28 13:32:18;;;;;;;;;;;;;;;18.36;61.26;100921.24;2223905;77;51592;-76
2022/11/28 13:35:20;;;;;;;;;;;;;;;18.34;61.31;100920.09;2293922;77;50637;-76
2022/11/28 13:38:23;;;;;;;;;;;;;;;18.23;61.65;100917.27;2294047;77;50309;-75
2022/11/28 13:41:29;;;;;;;;;;;;;;;18.09;62.15;100909.16;2294028;77;51685;-76
2022/11/28 13:44:35;;;;;;;;;;;;;;;18.09;62.17;100907.81;2283600;77;50282;-75
2022/11/28 13:47:37;;;;;;;;;;;;;;;18.07;62.26;100913.33;2282743;77;50350;-75
2022/11/28 13:50:39;;;;;;;;;;;;;;;18.04;62.28;100907.82;2263883;77;49505;-75
2022/11/28 13:53:41;;;;;;;;;;;;;;;17.99;62.26;100910.18;2301569;77;51481;-75
2022/11/28 13:56:43;;;;;;;;;;;;;;;17.99;62.25;100906.67;2301272;77;51524;-76
2022/11/28 13:59:48;;;;;;;;;;;;;;;18.10;61.97;100915.66;2301899;77;50402;-75
2022/11/28 14:02:52;;;;;;;;;;;;;;;18.15;61.81;100912.47;2301511;77;50755;-74
2022/11/28 14:05:53;;;;;;;;;;;;;;;18.26;61.54;100916.09;2301369;77;50637;-74
2022/11/28 14:09:02;;;;;;;;;;;;;;;18.35;61.25;100912.38;2301685;77;50258;-75
2022/11/28 14:12:15;;;;;;;;;;;;;;;18.38;61.03;100902.64;2301808;77;50409;-75
2022/11/28 14:15:24;;;;;;;;;;;;;;;18.43;60.87;100902.95;2298890;77;51287;-75
2022/11/28 14:18:30;;;;;;;;;;;;;;;18.40;60.88;100911.34;2294294;77;51415;-75
2022/11/28 14:21:43;;;;;;;;;;;;;;;18.37;60.88;100914.38;2301282;77;51535;-75
2022/11/28 14:24:46;;;;;;;;;;;;;;;18.39;60.80;100911.00;2215005;77;51522;-77
2022/11/28 14:27:51;;;;;;;;;;;;;;;18.35;60.79;100913.72;2268023;77;52508;-75
2022/11/28 14:30:54;;;;;;;;;;;;;;;18.31;60.90;100912.38;2301608;77;50678;-75
2022/11/28 14:34:02;;;;;;;;;;;;;;;18.25;61.00;100909.91;2300481;77;50726;-75
2022/11/28 14:37:23;;;;;;;;;;;;;;;18.17;61.10;100906.44;2301602;77;50749;-76
2022/11/28 14:40:42;;;;;;;;;;;;;;;18.14;61.21;100906.80;2301640;77;23262;-76
2022/11/28 14:43:47;;;;;;;;;;;;;;;18.25;60.98;100913.09;2300925;77;50746;-75
2022/11/28 14:47:05;;;;;;;;;;;;;;;18.35;60.69;100912.89;2274927;77;50270;-75
2022/11/28 14:50:08;;;;;;;;;;;;;;;18.42;60.47;100912.02;2255618;78;50641;-75
2022/11/28 14:53:28;;;;;;;;;;;;;;;18.41;60.42;100910.33;2225029;79;51989;-75
2022/11/28 14:56:30;;;;;;;;;;;;;;;18.43;60.36;100912.33;2245015;79;51430;-75
2022/11/28 14:59:32;;;;;;;;;;;;;;;18.41;60.36;100910.33;2245091;79;50216;-75
2022/11/28 15:02:35;;;;;;;;;;;;;;;18.40;60.40;100910.01;2245200;79;50725;-74
2022/11/28 15:05:47;;;;;;;;;;;;;;;18.38;60.35;100912.02;2225143;79;52247;-74
2022/11/28 15:08:50;;;;;;;;;;;;;;;18.34;60.37;100917.42;2270209;78;51603;-75
2022/11/28 15:12:10;;;;;;;;;;;;;;;18.29;60.46;100917.11;2281836;77;53899;-75
2022/11/28 15:15:12;;;;;;;;;;;;;;;18.22;60.60;100928.18;2278504;77;51456;-75
2022/11/28 15:18:13;;;;;;;;;;;;;;;18.27;60.52;100931.17;2223315;79;49515;-75
2022/11/28 15:21:15;;;;;;;;;;;;;;;18.26;60.54;100934.84;2245280;79;50606;-75
2022/11/28 15:24:18;;;;;;;;;;;;;;;18.34;60.36;100927.27;2244990;79;50350;-75
2022/11/28 15:27:24;;;;;;;;;;;;;;;18.39;60.18;100926.25;2244902;79;50775;-75
2022/11/28 15:30:25;;;;;;;;;;;;;;;18.48;59.93;100922.53;2262579;77;50150;-76
2022/11/28 15:33:27;;;;;;;;;;;;;;;18.50;59.81;100928.04;2258881;78;50546;-76
2022/11/28 15:36:29;;;;;;;;;;;;;;;18.50;59.89;100932.57;2280928;78;51554;-76
2022/11/28 15:39:41;;;;;;;;;;;;;;;18.55;59.75;100929.34;2281059;78;50612;-74
2022/11/28 15:42:40;;;;;;;;;;;;;;;18.51;59.82;100934.23;2279736;77;22414;-76
2022/11/28 15:45:42;;;;;;;;;;;;;;;18.48;59.91;100935.92;2274471;77;51398;-75